Corpus Christi, TX

8:12 PM CST on January 29, 2015 (GMT -0600)
Cole Place | Change Station
CLOSE
Current Station
Personal Weather Station
Location: Corpus Christi, TX
Elevation: 46 ft
Nearby Weather Stations

Elev 46 ft 27.75 °N, 97.37 °W | Updated 7 seconds ago

Mostly Cloudy
Mostly Cloudy
59.0 °F
Feels Like 59.0 °F
N
3.0
Wind Variable Wind from SSE
Gusts 3.0 mph

Today
High -- | Low -- °F
--% Chance of Precip.
Yesterday
High -- | Low -- °F
Precip. -- in
7:17 AM 6:07 PM
Waxing Gibbous, 79% visible
Pressure 30.25 in
Visibility 10.0 miles
Clouds Few 2000 ft
Mostly Cloudy 20000 ft
Dew Point 58.0 °F
Humidity 98%
Rainfall 0.00 in
Snow Depth Not available.
UV 0 out of 12
Pollen 7.60 out of 12
Air Quality Not available.
Flu Activity Not available.
METAR KNGP 300156Z 09007KT 10SM FEW020 BKN200 17/17 A3025 RMK AO2 SLP244 T01720167

More Conditions Fewer Conditions

Pressure 30.25 in
Visibility 10.0 miles
Clouds Few 2000 ft
Mostly Cloudy 20000 ft
Dew Point 58.0 °F
Humidity 98%
Rainfall 0.00 in
Snow Depth Not available.
UV 0 out of 12
Pollen 7.60 out of 12
Air Quality Not available.
Flu Activity Not available.
METAR KNGP 300156Z 09007KT 10SM FEW020 BKN200 17/17 A3025 RMK AO2 SLP244 T01720167

More Conditions Fewer Conditions

10-Day Weather Forecast

Almanac

Astronomy

Jan. 29, 2015 Rise Set
Actual Time
Civil Twilight
Nautical Twilight
Astronomical Twilight
Moon
Length of Visible Light
Length of Day
Tomorrow will be .
, % of the Moon is Illuminated

Today's Extremes

State Highs State Lows

Community

WunderPhotos

Upload Photos

1,791,689 photos uploaded!

WunderBlogs® & News

Nearby

Air Quality

  Air Quality AQ Index Pollutant
Not available.

Snow Depth

Station Depth Elevation

Earthquake Activity

City Distance Mag. Time & Date
Minimum magnitude displayed is 2.5.

Coastal Water Temperatures

Place Temperature

Nearby Weather Stations